Time;durP1;ratioP1;P1;durP2;ratioP2;P2;SDS_P1;SDS_P2;PMS_P1;PMS_P2;Temp;Humidity;BMP_temperature;BMP_pressure;BME280_temperature;BME280_humidity;BME280_pressure;Samples;Min_cycle;Max_cycle;Signal;HPM_P1;HPM_P2
2020/12/22 00:00:23;;;;;;;11.33;6.60;;;;;;;7.42;100.00;96419.84;5000721;28;20214;-71
2020/12/22 00:02:49;;;;;;;10.10;7.07;;;;;;;7.34;100.00;96420.66;5000057;28;20207;-70
2020/12/22 00:05:16;;;;;;;11.37;7.17;;;;;;;7.41;100.00;96421.66;5000842;28;20214;-70
2020/12/22 00:07:42;;;;;;;14.17;7.60;;;;;;;7.48;100.00;96434.97;4999934;28;20211;-70
2020/12/22 00:10:12;;;;;;;11.30;6.83;;;;;;;7.45;100.00;96425.63;5000380;28;20214;-70
2020/12/22 00:12:39;;;;;;;11.33;7.30;;;;;;;7.35;100.00;96426.69;5000155;28;20203;-70
2020/12/22 00:15:05;;;;;;;10.70;7.07;;;;;;;7.42;100.00;96425.09;4999750;28;20214;-70
2020/12/22 00:17:31;;;;;;;10.10;6.63;;;;;;;7.42;100.00;96419.84;4999897;28;20211;-70
2020/12/22 00:19:57;;;;;;;10.03;6.20;;;;;;;7.44;100.00;96431.84;5000817;28;20265;-70
2020/12/22 00:22:23;;;;;;;10.30;6.63;;;;;;;7.52;100.00;96446.81;4999794;28;20239;-70
2020/12/22 00:24:49;;;;;;;12.13;6.13;;;;;;;7.46;100.00;96443.00;5001121;28;20658;-70
2020/12/22 00:27:16;;;;;;;9.90;6.37;;;;;;;7.44;100.00;96438.91;4999916;28;20681;-70
2020/12/22 00:29:42;;;;;;;9.07;5.63;;;;;;;7.55;100.00;96436.84;4999815;28;20258;-70
2020/12/22 00:32:08;;;;;;;11.60;7.13;;;;;;;7.56;100.00;96441.13;5001003;28;20262;-70
2020/12/22 00:34:34;;;;;;;8.33;5.60;;;;;;;7.50;100.00;96454.81;5001562;28;20264;-70
2020/12/22 00:37:00;;;;;;;8.00;6.00;;;;;;;7.52;100.00;96446.81;5003572;28;20238;-70
2020/12/22 00:39:26;;;;;;;9.67;6.00;;;;;;;7.49;100.00;96447.13;5004509;28;20249;-70
2020/12/22 00:41:52;;;;;;;8.87;6.00;;;;;;;7.55;100.00;96433.41;5003132;28;20231;-70
2020/12/22 00:44:19;;;;;;;9.93;6.10;;;;;;;7.51;100.00;96437.28;5002603;28;20207;-70
2020/12/22 00:46:45;;;;;;;10.07;6.63;;;;;;;7.48;100.00;96425.31;5001926;28;20210;-70
2020/12/22 00:49:11;;;;;;;8.83;5.80;;;;;;;7.51;100.00;96425.03;5003111;28;20729;-70
2020/12/22 00:51:37;;;;;;;8.83;5.40;;;;;;;7.57;100.00;96429.63;5003034;28;20223;-70
2020/12/22 00:54:03;;;;;;;9.23;6.07;;;;;;;7.62;100.00;96431.81;5003212;28;20221;-70
2020/12/22 00:56:29;;;;;;;9.50;6.50;;;;;;;7.60;100.00;96428.50;5002944;28;20325;-70
2020/12/22 00:58:55;;;;;;;9.10;6.00;;;;;;;7.66;100.00;96417.41;5003750;28;20784;-70
2020/12/22 01:01:22;;;;;;;9.27;5.90;;;;;;;7.59;100.00;96422.44;5003393;28;20289;-70
2020/12/22 01:03:48;;;;;;;10.70;6.63;;;;;;;7.64;100.00;96422.81;5003656;28;20217;-70
2020/12/22 01:06:15;;;;;;;9.23;6.43;;;;;;;7.67;100.00;96425.09;5003055;28;20213;-70
2020/12/22 01:08:41;;;;;;;8.63;4.93;;;;;;;7.87;100.00;96440.47;5002913;28;20262;-70
2020/12/22 01:11:07;;;;;;;9.03;6.00;;;;;;;7.86;100.00;96441.44;5002732;28;20264;-70
2020/12/22 01:13:33;;;;;;;7.10;4.80;;;;;;;7.95;100.00;96437.88;5003390;28;20203;-70
2020/12/22 01:15:59;;;;;;;8.57;5.50;;;;;;;7.88;100.00;96439.50;5002553;28;20210;-70
2020/12/22 01:18:26;;;;;;;9.77;5.73;;;;;;;7.96;100.00;96450.03;5003729;28;20234;-70
2020/12/22 01:20:52;;;;;;;8.37;5.70;;;;;;;8.00;100.00;96438.25;5003409;28;20644;-70
2020/12/22 01:23:18;;;;;;;8.27;5.90;;;;;;;8.05;100.00;96440.41;5002968;28;20215;-70
2020/12/22 01:25:44;;;;;;;8.53;5.33;;;;;;;8.06;100.00;96447.31;5001381;28;20214;-70
2020/12/22 01:28:10;;;;;;;9.17;5.27;;;;;;;8.13;100.00;96443.06;5003898;28;20238;-70
2020/12/22 01:30:36;;;;;;;7.57;5.20;;;;;;;8.07;100.00;96439.28;5002979;28;20226;-70
2020/12/22 01:33:03;;;;;;;6.60;4.60;;;;;;;8.11;100.00;96440.59;5002777;28;20211;-70
2020/12/22 01:35:29;;;;;;;7.20;4.80;;;;;;;8.15;100.00;96435.91;5003234;28;20210;-70
2020/12/22 01:37:55;;;;;;;7.07;5.00;;;;;;;8.17;100.00;96447.06;5003706;28;20273;-70
2020/12/22 01:40:21;;;;;;;7.67;4.90;;;;;;;8.14;100.00;96442.13;5003425;28;20601;-70
2020/12/22 01:42:47;;;;;;;7.80;5.00;;;;;;;8.12;100.00;96444.03;5003162;28;20693;-70
2020/12/22 01:45:13;;;;;;;7.20;5.30;;;;;;;8.17;100.00;96441.81;5002665;28;20226;-70
2020/12/22 01:47:44;;;;;;;6.77;5.00;;;;;;;8.17;100.00;96418.19;5002498;28;20210;-70
2020/12/22 01:50:11;;;;;;;8.13;5.27;;;;;;;8.14;100.00;96431.63;5002853;28;20214;-70
2020/12/22 01:52:39;;;;;;;7.73;5.47;;;;;;;8.06;100.00;96440.25;5003302;28;20285;-70
2020/12/22 01:55:05;;;;;;;8.27;5.40;;;;;;;8.10;100.00;96438.97;5002499;28;20210;-70
2020/12/22 01:57:31;;;;;;;7.90;5.33;;;;;;;8.17;100.00;96434.78;5002682;28;20229;-70
2020/12/22 01:59:57;;;;;;;10.67;5.20;;;;;;;8.25;100.00;96433.97;5002904;28;20763;-70
2020/12/22 02:02:23;;;;;;;7.40;4.97;;;;;;;8.33;100.00;96437.44;5003594;28;20232;-70
2020/12/22 02:04:49;;;;;;;6.57;4.80;;;;;;;8.33;100.00;96441.88;5002936;28;20211;-70
2020/12/22 02:07:15;;;;;;;7.63;5.03;;;;;;;8.30;100.00;96439.56;5002705;28;20317;-70
2020/12/22 02:09:43;;;;;;;7.50;5.00;;;;;;;8.32;100.00;96430.53;5002147;28;21201;-70
2020/12/22 02:12:09;;;;;;;5.83;4.03;;;;;;;8.30;100.00;96434.31;5002587;28;20780;-70
2020/12/22 02:14:35;;;;;;;6.83;4.63;;;;;;;8.29;100.00;96433.50;5003203;28;20210;-70
2020/12/22 02:17:01;;;;;;;6.00;4.77;;;;;;;8.34;100.00;96435.63;5002566;28;20210;-70
2020/12/22 02:19:27;;;;;;;8.67;4.63;;;;;;;8.33;100.00;96431.38;5002328;28;20217;-70
2020/12/22 02:21:54;;;;;;;6.23;4.50;;;;;;;8.38;100.00;96437.81;5002228;28;20677;-70
2020/12/22 02:24:20;;;;;;;5.30;4.07;;;;;;;8.42;100.00;96430.44;5002253;28;20210;-70
2020/12/22 02:26:46;;;;;;;6.30;4.20;;;;;;;8.49;100.00;96432.28;5001404;28;20374;-70
2020/12/22 02:29:12;;;;;;;6.97;3.90;;;;;;;8.59;100.00;96436.41;5000987;28;20234;-70
2020/12/22 02:31:38;;;;;;;7.40;4.67;;;;;;;8.60;100.00;96438.06;5002109;28;20300;-70
2020/12/22 02:34:04;;;;;;;4.73;3.37;;;;;;;8.63;100.00;96453.47;5002441;28;20210;-70
2020/12/22 02:36:32;;;;;;;8.03;4.03;;;;;;;8.63;100.00;96452.63;5001265;28;20731;-70
2020/12/22 02:38:58;;;;;;;6.13;4.33;;;;;;;8.66;100.00;96458.41;5001960;28;20195;-70
2020/12/22 02:41:24;;;;;;;7.23;4.70;;;;;;;8.60;100.00;96459.06;5001967;28;20276;-70
2020/12/22 02:43:50;;;;;;;6.17;4.33;;;;;;;8.70;100.00;96469.41;5001364;28;20230;-70
2020/12/22 02:46:16;;;;;;;6.60;4.70;;;;;;;8.63;100.00;96469.25;5002032;28;20207;-70
2020/12/22 02:48:42;;;;;;;6.40;4.47;;;;;;;8.65;100.00;96475.13;5001180;28;20644;-70
2020/12/22 02:51:08;;;;;;;7.70;4.67;;;;;;;8.73;100.00;96471.72;5001164;28;20219;-70
2020/12/22 02:53:34;;;;;;;6.47;4.53;;;;;;;8.72;100.00;96472.72;5001262;28;20206;-71
2020/12/22 02:56:01;;;;;;;8.07;4.93;;;;;;;8.67;100.00;96469.75;5000343;28;20248;-70
2020/12/22 02:58:27;;;;;;;7.00;4.80;;;;;;;8.75;100.00;96454.00;5000228;28;20207;-70
2020/12/22 03:00:53;;;;;;;6.73;4.43;;;;;;;8.72;100.00;96452.53;5001541;28;20226;-70
2020/12/22 03:03:19;;;;;;;7.57;4.80;;;;;;;8.69;100.00;96449.38;5001175;28;20214;-70
2020/12/22 03:05:45;;;;;;;7.60;4.70;;;;;;;8.74;100.00;96453.16;5000663;28;20241;-70
2020/12/22 03:08:10;;;;;;;7.77;4.27;;;;;;;8.68;100.00;96451.19;5001195;28;20277;-70
2020/12/22 03:10:37;;;;;;;7.50;5.60;;;;;;;8.68;100.00;96461.72;5001852;28;20664;-70
2020/12/22 03:13:03;;;;;;;7.80;5.23;;;;;;;8.67;100.00;96451.38;5002055;28;20225;-70
2020/12/22 03:15:30;;;;;;;9.33;5.57;;;;;;;8.64;100.00;96434.13;5001804;28;20215;-71
2020/12/22 03:17:56;;;;;;;8.17;5.60;;;;;;;8.60;100.00;96432.78;5002042;28;20206;-71
2020/12/22 03:20:24;;;;;;;10.30;5.57;;;;;;;8.55;100.00;96428.97;5002114;28;20198;-70
2020/12/22 03:22:50;;;;;;;12.60;5.57;;;;;;;8.55;100.00;96428.97;5001818;28;20262;-70
2020/12/22 03:25:16;;;;;;;8.13;5.30;;;;;;;8.51;100.00;96422.41;5002000;28;20214;-70
2020/12/22 03:27:42;;;;;;;10.03;5.50;;;;;;;8.60;100.00;96418.81;5002279;28;20749;-71
2020/12/22 03:30:10;;;;;;;9.40;5.70;;;;;;;8.52;100.00;96418.81;5001580;28;21237;-70
2020/12/22 03:32:36;;;;;;;8.63;5.50;;;;;;;8.56;100.00;96426.19;5001473;28;20234;-71
2020/12/22 03:35:02;;;;;;;11.20;6.10;;;;;;;8.58;100.00;96424.25;5002154;28;20329;-70
2020/12/22 03:37:28;;;;;;;9.93;5.90;;;;;;;8.60;100.00;96421.44;5002184;28;20214;-70
2020/12/22 03:39:56;;;;;;;8.63;5.77;;;;;;;8.59;100.00;96418.00;5002663;28;20280;-70
2020/12/22 03:42:22;;;;;;;8.80;5.83;;;;;;;8.58;100.00;96419.00;5002731;28;20260;-70
2020/12/22 03:44:49;;;;;;;9.33;5.70;;;;;;;8.54;100.00;96416.81;5001900;28;20217;-70
2020/12/22 03:47:16;;;;;;;9.87;5.60;;;;;;;8.54;100.00;96417.66;5001640;28;20226;-70
2020/12/22 03:49:42;;;;;;;8.67;5.13;;;;;;;8.60;100.00;96424.91;5001712;28;20237;-70
2020/12/22 03:52:08;;;;;;;8.70;5.93;;;;;;;8.59;100.00;96423.25;5001992;28;20725;-70
2020/12/22 03:54:34;;;;;;;10.57;5.53;;;;;;;8.62;100.00;96420.31;5002566;28;20214;-70
2020/12/22 03:57:01;;;;;;;8.97;5.60;;;;;;;8.64;100.00;96418.34;5002514;28;21009;-70
2020/12/22 03:59:27;;;;;;;7.00;5.40;;;;;;;8.63;100.00;96413.22;4997661;28;20199;-71
2020/12/22 04:01:53;;;;;;;8.73;5.60;;;;;;;8.63;100.00;96408.81;4996760;28;20226;-71
2020/12/22 04:04:21;;;;;;;9.07;5.23;;;;;;;8.72;100.00;96407.84;4997295;28;20552;-71
2020/12/22 04:06:48;;;;;;;7.03;5.00;;;;;;;8.67;100.00;96411.97;4995999;28;20202;-70
2020/12/22 04:09:14;;;;;;;6.70;4.47;;;;;;;8.73;100.00;96396.38;4997017;28;20222;-72
2020/12/22 04:11:40;;;;;;;7.17;4.63;;;;;;;8.78;100.00;96390.63;5001255;28;20767;-71
2020/12/22 04:14:07;;;;;;;8.47;4.63;;;;;;;8.71;100.00;96387.81;5000519;28;20237;-71
2020/12/22 04:16:33;;;;;;;6.27;4.10;;;;;;;8.75;100.00;96391.75;5000886;28;20213;-71
2020/12/22 04:18:59;;;;;;;5.57;3.67;;;;;;;8.82;100.00;96399.81;5000789;28;20264;-71
2020/12/22 04:21:26;;;;;;;7.00;4.57;;;;;;;8.85;100.00;96392.44;5001255;28;20296;-71
2020/12/22 04:23:52;;;;;;;7.07;3.63;;;;;;;8.87;100.00;96398.38;5000666;28;20207;-71
2020/12/22 04:26:18;;;;;;;4.73;3.53;;;;;;;8.87;100.00;96393.09;5000588;28;21117;-71
2020/12/22 04:28:44;;;;;;;5.17;3.70;;;;;;;8.85;100.00;96396.88;5000137;28;20230;-72
2020/12/22 04:31:10;;;;;;;5.63;3.33;;;;;;;8.89;100.00;96399.00;5000635;28;20749;-71
2020/12/22 04:33:36;;;;;;;7.80;4.40;;;;;;;8.96;100.00;96407.91;5000300;28;20572;-71
2020/12/22 04:36:02;;;;;;;20.43;8.00;;;;;;;9.01;100.00;96413.47;5000554;28;20345;-71
2020/12/22 04:38:28;;;;;;;7.07;4.40;;;;;;;9.02;100.00;96420.38;4999944;28;20198;-71
2020/12/22 04:40:54;;;;;;;7.53;3.87;;;;;;;9.08;100.00;96411.84;5000569;28;20226;-71
2020/12/22 04:43:22;;;;;;;8.10;4.83;;;;;;;9.03;100.00;96426.47;5000166;28;20226;-71
2020/12/22 04:45:50;;;;;;;8.90;4.67;;;;;;;9.11;100.00;96422.84;5000272;28;20221;-71
2020/12/22 04:48:19;;;;;;;11.60;5.77;;;;;;;9.15;100.00;96423.34;5000099;28;20234;-71
2020/12/22 04:50:47;;;;;;;8.17;4.90;;;;;;;9.11;100.00;96424.66;5000418;28;20310;-71
2020/12/22 04:53:13;;;;;;;9.70;5.57;;;;;;;9.08;100.00;96424.97;4999952;28;20666;-71
2020/12/22 04:55:40;;;;;;;7.53;3.80;;;;;;;9.12;100.00;96423.66;4999626;28;20207;-71
2020/12/22 04:58:07;;;;;;;10.47;5.70;;;;;;;9.11;100.00;96416.75;5000764;28;20199;-71
2020/12/22 05:00:33;;;;;;;7.93;4.40;;;;;;;9.14;100.00;96414.63;4999687;28;20241;-71
2020/12/22 05:03:02;;;;;;;6.13;3.53;;;;;;;9.13;100.00;96409.53;5000275;28;20207;-71
2020/12/22 05:05:28;;;;;;;8.57;5.00;;;;;;;9.18;100.00;96417.75;4999909;28;20203;-71
2020/12/22 05:07:54;;;;;;;6.83;3.73;;;;;;;9.17;100.00;96410.84;5000553;28;20268;-71
2020/12/22 05:10:20;;;;;;;6.07;3.53;;;;;;;9.12;100.00;96402.63;4999164;28;20272;-71
2020/12/22 05:12:47;;;;;;;4.67;3.33;;;;;;;9.17;100.00;96416.13;5000257;28;20234;-71
2020/12/22 05:15:13;;;;;;;4.63;3.13;;;;;;;9.17;100.00;96424.00;4999334;28;20202;-71
2020/12/22 05:17:40;;;;;;;5.00;3.50;;;;;;;9.21;100.00;96412.16;4999702;28;20202;-71
2020/12/22 05:20:08;;;;;;;3.87;2.77;;;;;;;9.22;100.00;96416.44;4999724;28;20345;-71
2020/12/22 05:22:36;;;;;;;5.00;2.70;;;;;;;9.25;100.00;96424.00;4999002;28;20254;-71
2020/12/22 05:25:02;;;;;;;3.43;2.60;;;;;;;9.34;100.00;96434.38;4999121;28;20945;-70
2020/12/22 05:27:30;;;;;;;4.07;2.77;;;;;;;9.35;100.00;96425.47;4999968;28;20217;-71
2020/12/22 05:29:59;;;;;;;3.30;2.60;;;;;;;9.43;100.00;96422.84;4999751;28;20222;-71
2020/12/22 05:32:25;;;;;;;4.47;2.50;;;;;;;9.43;100.00;96427.28;4999205;28;20329;-71
2020/12/22 05:34:51;;;;;;;6.37;3.10;;;;;;;9.47;100.00;96421.53;4999118;28;20214;-71
2020/12/22 05:37:17;;;;;;;5.33;2.13;;;;;;;9.51;100.00;96424.63;4999262;28;20253;-71
2020/12/22 05:39:44;;;;;;;5.60;2.70;;;;;;;9.34;100.00;96418.59;4999984;28;20261;-72
2020/12/22 05:42:14;;;;;;;4.37;3.13;;;;;;;9.33;100.00;96410.84;4999118;28;20226;-71
2020/12/22 05:44:47;;;;;;;3.50;2.73;;;;;;;9.36;100.00;96415.78;4999223;28;20632;-71
2020/12/22 05:47:16;;;;;;;4.73;3.30;;;;;;;9.36;100.00;96408.72;4998738;28;20199;-71
2020/12/22 05:49:53;;;;;;;4.60;3.00;;;;;;;9.39;100.00;96397.03;4999243;28;20345;-70
2020/12/22 05:52:23;;;;;;;5.17;3.00;;;;;;;9.33;100.00;96395.91;4999000;28;20218;-70
2020/12/22 05:54:53;;;;;;;2.83;2.33;;;;;;;9.38;100.00;96403.28;4998967;28;20275;-70
2020/12/22 05:57:20;;;;;;;3.20;2.67;;;;;;;9.37;100.00;96394.59;4998421;28;20198;-70
2020/12/22 05:59:46;;;;;;;4.00;2.60;;;;;;;9.35;100.00;96399.16;4998807;28;20326;-70
2020/12/22 06:02:29;;;;;;;3.17;2.27;;;;;;;9.43;100.00;96406.25;4998550;28;20222;-71
2020/12/22 06:04:57;;;;;;;3.10;2.33;;;;;;;9.39;100.00;96416.25;4998912;28;20583;-71
2020/12/22 06:07:23;;;;;;;3.40;2.50;;;;;;;9.41;100.00;96413.50;4997631;28;20745;-71
2020/12/22 06:09:49;;;;;;;5.63;2.90;;;;;;;9.42;100.00;96420.38;4999223;28;20278;-70
2020/12/22 06:12:16;;;;;;;3.60;2.30;;;;;;;9.50;100.00;96423.00;4998723;28;20309;-70
2020/12/22 06:14:44;;;;;;;2.87;2.40;;;;;;;9.42;100.00;96428.25;4998017;28;20206;-70
2020/12/22 06:17:11;;;;;;;6.57;3.50;;;;;;;9.39;100.00;96431.22;4997528;28;20693;-70
2020/12/22 06:19:40;;;;;;;4.07;2.40;;;;;;;9.46;100.00;96443.56;4999286;28;20238;-70
2020/12/22 06:22:09;;;;;;;5.00;2.60;;;;;;;9.50;100.00;96436.16;4998194;28;20291;-71
2020/12/22 06:24:35;;;;;;;3.73;2.50;;;;;;;9.54;100.00;96426.97;4998452;28;20195;-71
2020/12/22 06:27:02;;;;;;;4.47;3.07;;;;;;;9.49;100.00;96424.81;4997497;28;20682;-70
2020/12/22 06:29:28;;;;;;;4.40;2.90;;;;;;;9.55;100.00;96425.97;4998435;28;20237;-71
2020/12/22 06:31:54;;;;;;;7.43;4.00;;;;;;;9.57;100.00;96423.97;4998409;28;20289;-71
2020/12/22 06:34:24;;;;;;;3.60;2.80;;;;;;;9.64;100.00;96424.97;4998321;28;20210;-71
2020/12/22 06:36:58;;;;;;;5.47;3.47;;;;;;;9.52;100.00;96421.03;4997624;28;20214;-71
2020/12/22 06:39:41;;;;;;;4.20;2.50;;;;;;;9.50;100.00;96423.00;4998286;28;20201;-71
2020/12/22 06:42:08;;;;;;;8.87;3.60;;;;;;;9.42;100.00;96433.53;4997683;28;20222;-71
2020/12/22 06:44:35;;;;;;;4.87;2.93;;;;;;;9.47;100.00;96425.97;4998501;28;20203;-71
2020/12/22 06:47:03;;;;;;;5.70;3.27;;;;;;;9.41;100.00;96439.78;4997472;28;20201;-71
2020/12/22 06:49:52;;;;;;;8.53;3.27;;;;;;;9.39;100.00;96439.13;4998288;28;20313;-71
2020/12/22 06:52:35;;;;;;;8.50;3.93;;;;;;;9.34;100.00;96436.16;4997361;28;20237;-71
2020/12/22 06:55:03;;;;;;;7.83;3.83;;;;;;;9.38;100.00;96434.84;4997760;28;20202;-71
2020/12/22 06:57:42;;;;;;;8.37;3.40;;;;;;;9.37;100.00;96444.56;4998193;28;20207;-71
2020/12/22 07:00:09;;;;;;;17.53;8.97;;;;;;;9.35;100.00;96443.88;4998028;28;20617;-71
2020/12/22 07:02:36;;;;;;;12.17;6.47;;;;;;;9.36;100.00;96442.09;4997317;28;20249;-71
2020/12/22 07:05:04;;;;;;;9.30;5.30;;;;;;;9.35;100.00;96456.22;4997414;28;20203;-71
2020/12/22 07:07:56;;;;;;;9.43;3.63;;;;;;;9.36;100.00;96442.91;4997126;28;20211;-71
2020/12/22 07:10:23;;;;;;;7.30;3.70;;;;;;;9.39;100.00;96452.28;4997685;28;20233;-70
2020/12/22 07:12:50;;;;;;;5.37;3.57;;;;;;;9.38;100.00;96445.34;4997571;28;20673;-71
2020/12/22 07:15:18;;;;;;;6.43;3.77;;;;;;;9.38;100.00;96446.19;4997053;28;20321;-71
2020/12/22 07:17:44;;;;;;;5.77;3.30;;;;;;;9.42;100.00;96446.66;4997930;28;20214;-71
2020/12/22 07:20:10;;;;;;;7.80;3.47;;;;;;;9.42;100.00;96446.66;4997393;28;20724;-71
2020/12/22 07:22:36;;;;;;;6.23;3.00;;;;;;;9.40;100.00;96448.66;4997270;28;20606;-71
2020/12/22 07:25:04;;;;;;;4.97;3.47;;;;;;;9.38;100.00;96445.34;4996690;28;20700;-71
2020/12/22 07:27:31;;;;;;;5.37;3.40;;;;;;;9.37;100.00;96443.75;4997704;28;20206;-71
2020/12/22 07:29:57;;;;;;;5.17;3.40;;;;;;;9.43;100.00;96443.06;4997564;28;20673;-71
2020/12/22 07:32:24;;;;;;;8.00;5.27;;;;;;;9.42;100.00;96449.28;4997381;28;20226;-71
2020/12/22 07:34:50;;;;;;;7.37;4.83;;;;;;;9.48;100.00;96467.06;4997037;28;20301;-71
2020/12/22 07:37:16;;;;;;;10.37;6.80;;;;;;;9.46;100.00;96458.53;4997522;28;20198;-71
2020/12/22 07:39:42;;;;;;;4.87;3.40;;;;;;;9.46;100.00;96458.53;4997111;28;20245;-71
2020/12/22 07:42:11;;;;;;;5.50;3.00;;;;;;;9.55;100.00;96458.34;4997476;28;20233;-71
2020/12/22 07:44:37;;;;;;;6.03;3.53;;;;;;;9.60;100.00;96461.31;4998267;28;20613;-71
2020/12/22 07:47:03;;;;;;;6.27;3.47;;;;;;;9.61;100.00;96452.44;5001047;28;20232;-71
2020/12/22 07:49:29;;;;;;;4.10;2.83;;;;;;;9.66;100.00;96454.56;5001236;28;20237;-70
2020/12/22 07:51:55;;;;;;;5.80;2.53;;;;;;;9.68;100.00;96462.09;5001720;28;20230;-71
2020/12/22 07:54:21;;;;;;;3.70;2.57;;;;;;;9.68;100.00;96463.13;5001137;28;20206;-71
2020/12/22 07:56:47;;;;;;;4.47;2.63;;;;;;;9.71;100.00;96466.22;5000854;28;20213;-71
2020/12/22 07:59:15;;;;;;;4.27;2.57;;;;;;;9.72;100.00;96468.72;5001037;28;20195;-71
2020/12/22 08:01:43;;;;;;;3.47;2.10;;;;;;;9.81;100.00;96475.59;5002056;28;20229;-71
2020/12/22 08:04:15;;;;;;;5.30;2.30;;;;;;;9.80;100.00;96478.38;5001106;28;20199;-71
2020/12/22 08:06:42;;;;;;;4.10;2.50;;;;;;;9.81;100.00;96480.88;5000871;28;20207;-72
2020/12/22 08:09:09;;;;;;;3.37;2.23;;;;;;;9.81;100.00;96482.66;5000593;28;20876;-72
2020/12/22 08:11:35;;;;;;;5.27;3.30;;;;;;;9.81;100.00;96488.75;5001162;28;20237;-71
2020/12/22 08:14:03;;;;;;;7.37;3.53;;;;;;;9.83;100.00;96484.13;5000496;28;20213;-72
2020/12/22 08:16:35;;;;;;;6.67;3.77;;;;;;;9.80;100.00;96492.38;5000400;28;20207;-71
2020/12/22 08:19:04;;;;;;;4.17;3.03;;;;;;;9.79;100.00;96482.81;5000492;28;20345;-72
2020/12/22 08:21:33;;;;;;;3.47;2.50;;;;;;;9.88;100.00;96479.19;5000566;28;20309;-71
2020/12/22 08:24:00;;;;;;;5.10;2.97;;;;;;;9.90;100.00;96487.75;5000968;28;20198;-71
2020/12/22 08:26:25;;;;;;;3.07;2.30;;;;;;;9.90;100.00;96477.25;5000165;28;21100;-72
2020/12/22 08:28:53;;;;;;;4.83;2.83;;;;;;;9.98;100.00;96479.88;5000538;28;20226;-71
2020/12/22 08:31:23;;;;;;;6.53;3.10;;;;;;;10.00;100.00;96469.97;5000696;28;20321;-71
2020/12/22 08:33:52;;;;;;;4.50;2.90;;;;;;;10.08;100.00;96479.69;5001320;28;20230;-71
2020/12/22 08:36:19;;;;;;;12.43;5.47;;;;;;;10.10;100.00;96483.78;4999777;28;20207;-72
2020/12/22 08:38:45;;;;;;;3.33;2.30;;;;;;;10.14;100.00;96489.56;5000106;28;20326;-71
2020/12/22 08:41:17;;;;;;;3.10;2.00;;;;;;;10.24;100.00;96491.00;5000150;28;20219;-70
2020/12/22 08:43:50;;;;;;;6.17;2.60;;;;;;;10.30;100.00;96498.25;5000243;28;20202;-71
2020/12/22 08:46:18;;;;;;;5.07;2.40;;;;;;;10.31;100.00;96494.63;4999778;28;20627;-71
2020/12/22 08:48:45;;;;;;;2.37;1.80;;;;;;;10.35;100.00;96485.38;4999851;28;20222;-70
2020/12/22 08:51:11;;;;;;;2.10;1.40;;;;;;;10.43;100.00;96499.34;5000586;28;20637;-71
2020/12/22 08:53:48;;;;;;;4.90;1.93;;;;;;;10.41;100.00;96501.34;5000325;28;20214;-71
2020/12/22 08:56:14;;;;;;;3.80;2.13;;;;;;;10.40;100.00;96493.59;4998644;28;20313;-71
2020/12/22 08:58:54;;;;;;;2.07;1.57;;;;;;;10.43;100.00;96494.06;5000283;28;20302;-71
2020/12/22 09:01:25;;;;;;;6.07;2.80;;;;;;;10.53;100.00;96488.63;4999847;28;20740;-71
2020/12/22 09:03:53;;;;;;;2.13;1.57;;;;;;;10.55;100.00;96508.53;4999704;28;20256;-70
2020/12/22 09:06:32;;;;;;;2.53;1.80;;;;;;;10.66;100.00;96508.16;4999773;28;20206;-70
2020/12/22 09:08:59;;;;;;;2.30;1.60;;;;;;;10.75;100.00;96501.03;5000117;28;20317;-71
2020/12/22 09:11:25;;;;;;;4.10;1.63;;;;;;;10.83;100.00;96507.06;5000314;28;20276;-71
2020/12/22 09:14:03;;;;;;;3.33;1.53;;;;;;;10.84;100.00;96502.63;5000648;28;20203;-71
2020/12/22 09:16:53;;;;;;;2.53;1.60;;;;;;;10.88;100.00;96515.28;4999329;28;20202;-70
2020/12/22 09:19:21;;;;;;;6.80;2.67;;;;;;;10.89;100.00;96527.50;5000579;28;20596;-71
2020/12/22 09:21:57;;;;;;;3.43;1.93;;;;;;;10.87;100.00;96524.22;5000035;28;20226;-71
2020/12/22 09:24:22;;;;;;;4.17;2.17;;;;;;;10.95;100.00;96514.44;4999602;28;20875;-71
2020/12/22 09:26:56;;;;;;;7.67;2.70;;;;;;;10.95;100.00;96519.72;4998875;28;20206;-71
2020/12/22 09:29:23;;;;;;;2.67;1.53;;;;;;;10.99;100.00;96510.44;4999982;28;20233;-71
2020/12/22 09:31:50;;;;;;;2.10;1.37;;;;;;;11.02;100.00;96523.31;4999263;28;20230;-71
2020/12/22 09:34:16;;;;;;;2.23;1.40;;;;;;;10.99;100.00;96542.09;5000181;28;20202;-71
2020/12/22 09:36:42;;;;;;;2.27;1.37;;;;;;;10.95;100.00;96532.09;4998863;28;20211;-71
2020/12/22 09:39:09;;;;;;;2.10;1.47;;;;;;;10.99;100.00;96531.56;4999508;28;20230;-71
2020/12/22 09:41:41;;;;;;;4.90;2.30;;;;;;;11.00;100.00;96530.56;4999664;28;20226;-71
2020/12/22 09:44:08;;;;;;;5.40;2.97;;;;;;;11.02;100.00;96523.31;4999594;28;20737;-71
2020/12/22 09:46:34;;;;;;;3.23;1.77;;;;;;;11.01;100.00;96531.41;4998305;28;20751;-71
2020/12/22 09:49:00;;;;;;;1.47;1.30;;;;;;;11.08;100.00;96521.78;4998247;28;20305;-72
2020/12/22 09:51:25;;;;;;;1.27;1.10;;;;;;;11.16;100.00;96546.31;4999385;28;20725;-70
2020/12/22 09:53:51;;;;;;;1.70;1.27;;;;;;;11.22;100.00;96545.59;4998772;28;20300;-72
2020/12/22 09:56:18;;;;;;;3.17;1.30;;;;;;;11.26;100.00;96525.78;4996453;28;20213;-72
2020/12/22 09:58:44;;;;;;;1.67;1.00;;;;;;;11.22;100.00;96529.78;4998697;28;20218;-72
2020/12/22 10:01:10;;;;;;;1.60;1.10;;;;;;;11.25;100.00;96524.19;4999211;28;20313;-71
2020/12/22 10:03:36;;;;;;;2.30;1.20;;;;;;;11.27;100.00;96527.44;4999159;28;20298;-71
2020/12/22 10:06:02;;;;;;;1.23;1.00;;;;;;;11.21;100.00;96533.41;4997889;28;20634;-71
2020/12/22 10:08:28;;;;;;;1.43;1.20;;;;;;;11.20;100.00;96531.78;4997638;28;20261;-72
2020/12/22 10:10:54;;;;;;;3.00;1.10;;;;;;;11.20;100.00;96520.41;4998823;28;20325;-72
2020/12/22 10:13:21;;;;;;;1.87;1.30;;;;;;;11.17;100.00;96523.38;4998283;28;20209;-71
2020/12/22 10:15:47;;;;;;;1.97;1.00;;;;;;;11.13;100.00;96524.75;4998666;28;20202;-72
2020/12/22 10:18:13;;;;;;;2.53;1.23;;;;;;;11.08;100.00;96533.16;4998462;28;20308;-72
2020/12/22 10:20:39;;;;;;;1.53;1.10;;;;;;;11.15;100.00;96520.94;4998219;28;20226;-71
2020/12/22 10:23:05;;;;;;;4.30;1.70;;;;;;;11.17;100.00;96526.84;4998484;28;20213;-72
2020/12/22 10:25:31;;;;;;;3.17;1.70;;;;;;;11.18;100.00;96510.03;4998343;28;20210;-71
2020/12/22 10:27:57;;;;;;;1.10;1.00;;;;;;;11.25;100.00;96508.34;4998144;28;20202;-71
2020/12/22 10:30:24;;;;;;;8.23;1.20;;;;;;;11.35;100.00;96508.91;4998675;28;20233;-72
2020/12/22 10:32:50;;;;;;;1.87;1.00;;;;;;;11.35;100.00;96510.75;4998496;28;20206;-71
2020/12/22 10:35:16;;;;;;;2.93;1.07;;;;;;;11.38;100.00;96507.75;4997296;28;20329;-72
2020/12/22 10:37:42;;;;;;;4.17;1.40;;;;;;;11.44;100.00;96518.41;4998722;28;20218;-71
2020/12/22 10:40:08;;;;;;;3.87;1.57;;;;;;;11.53;100.00;96512.13;4998605;28;20861;-72
2020/12/22 10:42:34;;;;;;;3.67;1.20;;;;;;;11.53;100.00;96504.19;4998013;28;20269;-71
2020/12/22 10:44:59;;;;;;;3.07;1.23;;;;;;;11.57;100.00;96501.06;4997775;28;20297;-71
2020/12/22 10:47:26;;;;;;;4.17;2.03;;;;;;;11.62;100.00;96506.63;4997936;28;20239;-72
2020/12/22 10:49:52;;;;;;;3.17;1.50;;;;;;;11.63;100.00;96508.28;4998037;28;20237;-71
2020/12/22 10:52:18;;;;;;;4.33;1.73;;;;;;;11.66;100.00;96512.38;4997827;28;20257;-71
2020/12/22 10:54:44;;;;;;;2.00;1.37;;;;;;;11.66;100.00;96501.81;4998423;28;20203;-71
2020/12/22 10:57:10;;;;;;;1.47;1.07;;;;;;;11.74;100.00;96512.31;4997711;28;20258;-72
2020/12/22 10:59:36;;;;;;;1.92;1.20;;;;;;;11.75;100.00;96516.59;4997693;28;20734;-71
2020/12/22 11:02:02;;;;;;;2.97;1.37;;;;;;;11.77;100.00;96509.31;4998663;28;21153;-71
2020/12/22 11:04:29;;;;;;;3.23;1.50;;;;;;;11.77;100.00;96509.31;4998049;28;20289;-72
2020/12/22 11:07:01;;;;;;;2.00;1.20;;;;;;;11.82;100.00;96509.59;4996522;28;20293;-72
2020/12/22 11:09:27;;;;;;;3.93;0.90;;;;;;;11.81;100.00;96507.94;4997311;28;20700;-72
2020/12/22 11:11:53;;;;;;;2.05;1.40;;;;;;;11.81;100.00;96511.44;4998519;28;20333;-72
2020/12/22 11:14:19;;;;;;;2.33;0.90;;;;;;;11.83;100.00;96513.88;4997747;28;20725;-71
2020/12/22 11:16:46;;;;;;;4.63;1.38;;;;;;;11.85;100.00;96512.72;4997183;28;20320;-71
2020/12/22 11:19:12;;;;;;;3.55;1.30;;;;;;;11.92;100.00;96513.63;4996901;28;20670;-72
2020/12/22 11:21:42;;;;;;;1.73;0.98;;;;;;;11.98;100.00;96509.47;4997913;28;20237;-72
2020/12/22 11:24:08;;;;;;;1.38;1.00;;;;;;;12.03;100.00;96502.66;4997313;28;20628;-71
2020/12/22 11:26:34;;;;;;;1.33;1.00;;;;;;;12.06;100.00;96510.19;4996492;28;20280;-72
2020/12/22 11:29:00;;;;;;;1.95;0.80;;;;;;;12.13;100.00;96505.00;4996869;28;20262;-72
2020/12/22 11:31:26;;;;;;;1.52;0.98;;;;;;;12.08;100.00;96504.72;4997045;28;20222;-71